createdAt,value
2019-02-07T00:02:19.567Z,37.97
2019-02-07T00:05:06.636Z,38.43
2019-02-07T00:07:53.296Z,39.80
2019-02-07T00:10:40.215Z,37.87
2019-02-07T00:13:27.030Z,37.50
2019-02-07T00:16:13.820Z,38.87
2019-02-07T00:19:01.161Z,38.00
2019-02-07T00:21:47.772Z,38.00
2019-02-07T00:24:42.501Z,38.07
2019-02-07T00:27:22.111Z,39.40
2019-02-07T00:30:08.907Z,38.37
2019-02-07T00:32:55.399Z,38.27
2019-02-07T00:35:42.398Z,37.07
2019-02-07T00:38:29.624Z,37.37
2019-02-07T00:41:15.985Z,36.23
2019-02-07T00:44:02.832Z,37.20
2019-02-07T00:46:49.629Z,36.73
2019-02-07T00:49:36.552Z,36.83
2019-02-07T00:52:23.343Z,37.53
2019-02-07T00:55:09.389Z,38.03
2019-02-07T00:58:03.380Z,35.70
2019-02-07T01:00:49.962Z,37.77
2019-02-07T01:03:36.643Z,36.60
2019-02-07T01:06:23.449Z,36.77
2019-02-07T01:09:10.533Z,35.77
2019-02-07T01:11:57.471Z,37.20
2019-02-07T01:14:44.248Z,37.00
2019-02-07T01:17:31.810Z,35.67
2019-02-07T01:20:18.839Z,36.60
2019-02-07T01:23:05.852Z,37.83
2019-02-07T01:25:52.544Z,36.03
2019-02-07T01:28:39.148Z,35.77
2019-02-07T01:31:26.411Z,34.80
2019-02-07T01:34:12.760Z,36.40
2019-02-07T01:37:01.352Z,35.97
2019-02-07T01:39:47.564Z,36.20
2019-02-07T01:42:33.911Z,35.23
2019-02-07T01:45:20.849Z,35.33
2019-02-07T01:48:07.636Z,35.73
2019-02-07T01:50:54.503Z,36.90
2019-02-07T01:53:41.609Z,36.20
2019-02-07T01:56:28.025Z,36.07
2019-02-07T01:59:14.980Z,36.47
2019-02-07T02:02:01.348Z,37.87
2019-02-07T02:04:47.691Z,37.43
2019-02-07T02:07:34.687Z,37.47
2019-02-07T02:10:21.388Z,37.37
2019-02-07T02:13:08.536Z,35.50
2019-02-07T02:15:55.259Z,35.77
2019-02-07T02:18:42.173Z,36.57
2019-02-07T02:21:28.683Z,36.27
2019-02-07T02:24:15.207Z,35.67
2019-02-07T02:27:02.163Z,35.20
2019-02-07T02:29:49.008Z,36.20
2019-02-07T02:32:35.660Z,36.17
2019-02-07T02:35:22.877Z,35.27
2019-02-07T02:38:09.977Z,35.10
2019-02-07T02:40:56.466Z,36.53
2019-02-07T02:43:43.575Z,36.47
2019-02-07T02:46:30.576Z,35.07
2019-02-07T02:49:17.856Z,36.00
2019-02-07T02:52:04.653Z,35.33
2019-02-07T02:54:53.180Z,35.63
2019-02-07T02:57:40.492Z,36.33
2019-02-07T03:04:06.890Z,34.57
2019-02-07T03:07:12.570Z,38.47
2019-02-07T03:10:18.589Z,34.63
2019-02-07T03:13:20.080Z,36.37
2019-02-07T03:16:26.952Z,35.50
2019-02-07T03:19:33.123Z,35.53
2019-02-07T03:22:33.843Z,37.07
2019-02-07T03:28:43.008Z,35.90
2019-02-07T03:31:42.603Z,36.03
2019-02-07T03:34:48.812Z,34.97
2019-02-07T03:37:41.606Z,36.23
2019-02-07T03:40:47.267Z,34.93
2019-02-07T03:43:53.296Z,34.93
2019-02-07T03:46:58.888Z,36.37
2019-02-07T03:50:00.003Z,34.50
2019-02-07T03:53:06.291Z,35.63
2019-02-07T03:56:18.443Z,34.57
2019-02-07T03:59:24.656Z,35.70
2019-02-07T04:02:26.573Z,34.90
2019-02-07T04:05:59.713Z,35.30
2019-02-07T04:08:56.858Z,34.90
2019-02-07T04:12:02.291Z,37.37
2019-02-07T04:15:08.100Z,34.97
2019-02-07T04:18:14.097Z,35.23
2019-02-07T04:21:15.495Z,35.10
2019-02-07T04:24:20.805Z,34.13
2019-02-07T04:27:26.745Z,35.80
2019-02-07T04:30:28.992Z,34.80
2019-02-07T04:33:35.210Z,35.40
2019-02-07T04:36:41.531Z,34.77
2019-02-07T04:39:49.684Z,34.60
2019-02-07T04:42:49.658Z,33.63
2019-02-07T04:45:55.494Z,34.07
2019-02-07T04:49:01.509Z,32.60
2019-02-07T04:52:07.105Z,34.70
2019-02-07T04:55:12.731Z,33.97
2019-02-07T04:58:29.706Z,34.27
2019-02-07T05:01:35.560Z,33.40
2019-02-07T05:04:41.079Z,33.83
2019-02-07T05:07:46.831Z,33.47
2019-02-07T05:10:53.421Z,34.13
2019-02-07T05:13:53.638Z,33.07
2019-02-07T05:16:59.145Z,35.63
2019-02-07T05:20:08.413Z,33.77
2019-02-07T05:23:14.123Z,34.50
2019-02-07T05:26:19.929Z,34.77
2019-02-07T05:29:26.086Z,34.07
2019-02-07T05:32:36.090Z,36.37
2019-02-07T05:36:01.475Z,34.53
2019-02-07T05:39:01.608Z,33.37
2019-02-07T05:42:09.058Z,32.77
2019-02-07T05:45:20.879Z,38.77
2019-02-07T05:48:26.718Z,37.97
2019-02-07T05:51:32.146Z,34.13
2019-02-07T05:54:37.798Z,30.97
2019-02-07T05:57:43.360Z,27.27
2019-02-07T06:00:54.930Z,26.80
2019-02-07T06:03:50.723Z,26.83
2019-02-07T06:06:56.307Z,24.73
2019-02-07T06:09:52.197Z,25.53
2019-02-07T06:13:22.262Z,25.00
2019-02-07T06:16:27.996Z,27.93
2019-02-07T06:19:33.959Z,25.33
2019-02-07T06:22:45.347Z,25.77
2019-02-07T06:25:48.931Z,25.13
2019-02-07T06:28:49.339Z,24.67
2019-02-07T06:31:55.105Z,26.00
2019-02-07T06:35:00.966Z,25.07
2019-02-07T06:38:00.703Z,24.80
2019-02-07T06:41:06.256Z,24.47
2019-02-07T06:44:12.404Z,24.83
2019-02-07T06:47:17.668Z,25.17
2019-02-07T06:50:26.619Z,25.83
2019-02-07T06:53:35.603Z,27.00
2019-02-07T06:56:41.511Z,26.63
2019-02-07T06:59:47.600Z,25.93
2019-02-07T07:02:53.280Z,30.57
2019-02-07T07:05:54.619Z,30.43
2019-02-07T07:08:49.728Z,29.93
2019-02-07T07:11:50.983Z,30.70
2019-02-07T07:15:14.974Z,29.50
2019-02-07T07:18:28.028Z,30.17
2019-02-07T07:21:33.360Z,29.87
2019-02-07T07:24:30.506Z,30.00
2019-02-07T07:27:32.560Z,30.73
2019-02-07T07:30:38.305Z,31.57
2019-02-07T07:33:39.541Z,31.73
2019-02-07T07:36:44.982Z,30.73
2019-02-07T07:39:39.688Z,32.23
2019-02-07T07:42:45.403Z,38.77
2019-02-07T07:45:51.559Z,37.37
2019-02-07T07:48:57.215Z,35.70
2019-02-07T07:52:03.195Z,31.53
2019-02-07T07:55:07.038Z,30.07
2019-02-07T07:58:02.151Z,30.77
2019-02-07T08:01:10.947Z,30.60
2019-02-07T08:04:08.311Z,30.37
2019-02-07T08:07:08.359Z,30.07
2019-02-07T08:13:36.003Z,30.07
2019-02-07T08:16:41.644Z,29.57
2019-02-07T08:19:47.628Z,29.10
2019-02-07T08:22:53.802Z,31.47
2019-02-07T08:25:59.824Z,30.90
2019-02-07T08:29:11.767Z,29.47
2019-02-07T08:32:17.208Z,28.90
2019-02-07T08:35:23.277Z,27.63
2019-02-07T08:38:32.075Z,27.30
2019-02-07T08:41:40.588Z,27.07
2019-02-07T08:44:45.985Z,27.10
2019-02-07T08:47:58.430Z,30.10
2019-02-07T08:50:58.824Z,26.07
2019-02-07T08:54:04.410Z,26.50
2019-02-07T08:57:09.771Z,26.03
2019-02-07T09:00:04.476Z,26.77
2019-02-07T09:03:10.624Z,26.47
2019-02-07T09:06:14.392Z,26.27
2019-02-07T09:09:20.388Z,26.30
2019-02-07T09:12:18.218Z,26.60
2019-02-07T09:15:24.143Z,26.53
2019-02-07T09:18:30.187Z,26.33
2019-02-07T09:21:35.543Z,26.27
2019-02-07T09:24:41.452Z,26.60
2019-02-07T09:27:47.588Z,26.47
2019-02-07T09:30:53.380Z,26.57
2019-02-07T09:33:59.452Z,26.13
2019-02-07T09:37:05.921Z,26.00
2019-02-07T09:40:12.096Z,25.60
2019-02-07T09:43:18.154Z,25.50
2019-02-07T09:46:25.711Z,25.60
2019-02-07T09:49:31.032Z,25.93
2019-02-07T09:52:36.478Z,25.87
2019-02-07T09:55:41.893Z,26.20
2019-02-07T09:58:47.580Z,25.87
2019-02-07T10:01:43.115Z,27.23
2019-02-07T10:04:49.264Z,26.00
2019-02-07T10:07:54.616Z,25.97
2019-02-07T10:11:00.299Z,27.03
2019-02-07T10:14:05.692Z,25.87
2019-02-07T10:17:11.464Z,25.90
2019-02-07T10:20:16.751Z,25.67
2019-02-07T10:23:25.996Z,26.03
2019-02-07T10:26:46.151Z,26.43
2019-02-07T10:29:57.784Z,25.93
2019-02-07T10:33:03.434Z,25.73
2019-02-07T10:36:09.180Z,26.10
2019-02-07T10:39:15.056Z,25.27
2019-02-07T10:42:21.228Z,25.60
2019-02-07T10:45:27.215Z,25.90
2019-02-07T10:48:44.009Z,25.43
2019-02-07T10:51:40.401Z,25.70
2019-02-07T10:54:46.372Z,25.77
2019-02-07T10:57:49.048Z,26.33
2019-02-07T11:01:07.543Z,26.20
2019-02-07T11:04:12.960Z,26.03
2019-02-07T11:07:18.903Z,25.60
2019-02-07T11:10:24.895Z,25.93
2019-02-07T11:13:30.844Z,25.87
2019-02-07T11:16:36.378Z,25.83
2019-02-07T11:19:36.705Z,25.73
2019-02-07T11:22:55.240Z,26.87
2019-02-07T11:26:01.476Z,26.10
2019-02-07T11:29:07.489Z,26.77
2019-02-07T11:32:12.985Z,26.43
2019-02-07T11:35:07.719Z,26.90
2019-02-07T11:38:13.232Z,26.10
2019-02-07T11:41:12.591Z,25.87
2019-02-07T11:44:07.366Z,37.73
2019-02-07T11:47:13.445Z,39.03
2019-02-07T11:50:25.074Z,43.60
2019-02-07T11:53:27.089Z,40.63
2019-02-07T11:56:32.576Z,33.83
2019-02-07T11:59:38.787Z,27.53
2019-02-07T12:02:44.175Z,27.97
2019-02-07T12:05:49.788Z,27.67
2019-02-07T12:08:56.000Z,27.90
2019-02-07T12:12:03.889Z,28.83
2019-02-07T12:15:10.161Z,30.43
2019-02-07T12:18:15.959Z,27.80
2019-02-07T12:21:13.287Z,27.23
2019-02-07T12:24:13.684Z,27.33
2019-02-07T12:27:15.802Z,27.80
2019-02-07T12:30:25.041Z,27.17
2019-02-07T12:33:31.195Z,27.23
2019-02-07T12:36:37.169Z,27.13
2019-02-07T12:39:43.199Z,27.97
2019-02-07T12:42:48.880Z,27.63
2019-02-07T12:45:54.224Z,27.43
2019-02-07T12:48:56.651Z,27.83
2019-02-07T12:51:58.668Z,28.90
2019-02-07T12:54:56.387Z,27.27
2019-02-07T12:58:00.112Z,27.33
2019-02-07T13:01:12.271Z,26.83
2019-02-07T13:04:18.002Z,26.67
2019-02-07T13:07:23.779Z,26.60
2019-02-07T13:10:29.835Z,26.23
2019-02-07T13:13:35.670Z,26.13
2019-02-07T13:16:41.133Z,27.10
2019-02-07T13:19:46.461Z,26.23
2019-02-07T13:22:52.711Z,26.97
2019-02-07T13:25:52.211Z,26.43
2019-02-07T13:28:51.748Z,26.73
2019-02-07T13:31:49.427Z,29.53
2019-02-07T13:34:56.571Z,28.47
2019-02-07T13:38:02.450Z,26.40
2019-02-07T13:41:08.056Z,28.00
2019-02-07T13:44:14.052Z,26.77
2019-02-07T13:47:23.135Z,27.40
2019-02-07T13:50:28.998Z,26.70
2019-02-07T13:53:25.163Z,26.90
2019-02-07T13:56:30.841Z,26.93
2019-02-07T13:59:28.373Z,26.90
2019-02-07T14:02:40.038Z,27.63
2019-02-07T14:05:38.784Z,27.47
2019-02-07T14:08:44.436Z,27.50
2019-02-07T14:11:50.617Z,30.23
2019-02-07T14:15:02.703Z,32.13
2019-02-07T14:18:29.191Z,28.33
2019-02-07T14:21:35.184Z,28.07
2019-02-07T14:24:32.368Z,39.43
2019-02-07T14:27:59.203Z,29.47
2019-02-07T14:31:06.308Z,27.50
2019-02-07T14:34:12.457Z,28.97
2019-02-07T14:37:18.289Z,29.27
2019-02-07T14:40:24.139Z,27.57
2019-02-07T14:43:30.486Z,28.40
2019-02-07T14:46:35.992Z,29.97
2019-02-07T14:49:23.180Z,28.43
2019-02-07T14:52:09.899Z,28.40
2019-02-07T14:54:57.497Z,27.90
2019-02-07T14:57:44.616Z,27.60
2019-02-07T15:00:30.904Z,28.87
2019-02-07T15:03:17.615Z,28.43
2019-02-07T15:06:04.437Z,28.50
2019-02-07T15:08:51.398Z,28.20
2019-02-07T15:11:38.488Z,29.40
2019-02-07T15:14:25.155Z,27.67
2019-02-07T15:17:12.477Z,28.27
2019-02-07T15:19:59.602Z,28.67
2019-02-07T15:22:46.112Z,28.80
2019-02-07T15:25:32.928Z,28.23
2019-02-07T15:28:20.116Z,28.43
2019-02-07T15:31:07.199Z,28.57
2019-02-07T15:33:54.287Z,28.37
2019-02-07T15:36:41.609Z,30.77
2019-02-07T15:39:28.713Z,31.97
2019-02-07T15:42:15.663Z,29.70
2019-02-07T15:45:02.675Z,29.03
2019-02-07T15:47:50.208Z,29.63
2019-02-07T15:50:38.412Z,31.30
2019-02-07T15:53:27.193Z,38.93
2019-02-07T15:56:13.988Z,30.13
2019-02-07T16:02:17.383Z,29.60
2019-02-07T16:05:04.567Z,29.13
2019-02-07T16:07:51.597Z,29.53
2019-02-07T16:10:38.200Z,29.53
2019-02-07T16:13:25.163Z,28.53
2019-02-07T16:16:11.773Z,28.97
2019-02-07T16:18:58.103Z,29.33
2019-02-07T16:21:44.990Z,28.90
2019-02-07T16:24:31.944Z,29.40
2019-02-07T16:27:19.112Z,47.13
2019-02-07T16:30:06.104Z,32.33
2019-02-07T16:32:53.235Z,35.20
2019-02-07T16:35:40.400Z,29.70
2019-02-07T16:38:27.589Z,29.23
2019-02-07T16:41:14.225Z,34.67
2019-02-07T16:44:01.311Z,28.77
2019-02-07T16:46:47.667Z,34.03
2019-02-07T16:49:33.898Z,31.60
2019-02-07T16:52:20.196Z,29.03
2019-02-07T16:55:07.240Z,36.07
2019-02-07T16:57:53.799Z,29.50
2019-02-07T17:00:40.966Z,29.40
2019-02-07T17:03:27.755Z,31.13
2019-02-07T17:06:14.501Z,42.80
2019-02-07T17:09:01.854Z,30.67
2019-02-07T17:11:49.748Z,29.33
2019-02-07T17:14:35.944Z,28.67
2019-02-07T17:17:22.510Z,31.40
2019-02-07T17:20:14.738Z,28.57
2019-02-07T17:22:57.984Z,28.17
2019-02-07T17:25:45.168Z,40.63
2019-02-07T17:28:32.483Z,29.23
2019-02-07T17:31:19.646Z,29.07
2019-02-07T17:34:06.460Z,28.50
2019-02-07T17:36:52.951Z,29.70
2019-02-07T17:39:39.809Z,28.17
2019-02-07T17:42:26.407Z,27.80
2019-02-07T17:45:12.627Z,28.37
2019-02-07T17:47:58.909Z,30.70
2019-02-07T17:50:45.272Z,28.07
2019-02-07T17:53:32.259Z,28.00
2019-02-07T17:56:18.590Z,29.03
2019-02-07T17:59:06.293Z,28.37
2019-02-07T18:01:53.757Z,27.80
2019-02-07T18:04:40.772Z,28.23
2019-02-07T18:07:27.502Z,29.10
2019-02-07T18:10:13.919Z,31.60
2019-02-07T18:13:00.863Z,28.73
2019-02-07T18:15:47.433Z,28.47
2019-02-07T18:18:34.187Z,29.53
2019-02-07T18:21:20.716Z,29.67
2019-02-07T18:24:07.084Z,28.70
2019-02-07T18:26:53.636Z,28.53
2019-02-07T18:29:40.749Z,28.70
2019-02-07T18:32:27.326Z,28.73
2019-02-07T18:35:14.708Z,29.30
2019-02-07T18:38:01.605Z,31.93
2019-02-07T18:40:48.703Z,29.67
2019-02-07T18:43:35.556Z,28.67
2019-02-07T18:46:22.545Z,28.40
2019-02-07T18:49:09.664Z,28.57
2019-02-07T18:51:56.399Z,28.90
2019-02-07T18:54:43.394Z,28.50
2019-02-07T18:57:30.069Z,27.97
2019-02-07T19:00:17.064Z,28.57
2019-02-07T19:03:04.176Z,28.37
2019-02-07T19:05:39.059Z,27.43
2019-02-07T19:08:33.084Z,27.70
2019-02-07T19:11:19.596Z,27.50
2019-02-07T19:14:06.610Z,27.10
2019-02-07T19:16:53.769Z,27.47
2019-02-07T19:19:40.731Z,27.50
2019-02-07T19:22:27.572Z,27.60
2019-02-07T19:25:12.732Z,27.50
2019-02-07T19:28:06.908Z,28.20
2019-02-07T19:30:53.427Z,27.43
2019-02-07T19:33:40.361Z,26.97
2019-02-07T19:36:27.279Z,27.27
2019-02-07T19:39:14.204Z,26.80
2019-02-07T19:42:00.807Z,26.70
2019-02-07T19:44:47.675Z,27.27
2019-02-07T19:47:34.707Z,26.90
2019-02-07T19:50:21.628Z,26.87
2019-02-07T19:53:08.452Z,27.10
2019-02-07T19:55:55.448Z,26.90
2019-02-07T19:58:42.339Z,26.73
2019-02-07T20:01:29.263Z,27.00
2019-02-07T20:04:16.352Z,26.77
2019-02-07T20:07:03.184Z,27.03
2019-02-07T20:09:50.221Z,26.63
2019-02-07T20:12:36.611Z,27.50
2019-02-07T20:15:23.021Z,26.43
2019-02-07T20:18:09.482Z,26.57
2019-02-07T20:20:56.312Z,26.43
2019-02-07T20:23:43.047Z,29.80
2019-02-07T20:26:29.831Z,28.07
2019-02-07T20:29:16.663Z,27.33
2019-02-07T20:32:03.054Z,27.17
2019-02-07T20:34:49.579Z,28.00
2019-02-07T20:37:36.692Z,26.83
2019-02-07T20:40:23.204Z,26.63
2019-02-07T20:43:10.335Z,27.63
2019-02-07T20:45:56.909Z,27.87
2019-02-07T20:48:44.080Z,26.57
2019-02-07T20:51:31.016Z,28.53
2019-02-07T20:54:17.392Z,27.20
2019-02-07T20:57:03.912Z,28.50
2019-02-07T20:59:51.305Z,27.17
2019-02-07T21:02:38.128Z,27.37
2019-02-07T21:05:25.876Z,27.23
2019-02-07T21:08:12.939Z,28.10
2019-02-07T21:10:59.568Z,27.63
2019-02-07T21:13:46.659Z,26.90
2019-02-07T21:16:33.671Z,27.30
2019-02-07T21:19:20.312Z,27.20
2019-02-07T21:22:07.066Z,27.10
2019-02-07T21:24:53.879Z,27.33
2019-02-07T21:27:40.673Z,27.50
2019-02-07T21:30:27.444Z,26.83
2019-02-07T21:33:14.699Z,27.00
2019-02-07T21:36:01.372Z,26.90
2019-02-07T21:38:48.443Z,26.23
2019-02-07T21:41:35.500Z,27.27
2019-02-07T21:44:22.447Z,26.37
2019-02-07T21:47:10.013Z,26.70
2019-02-07T21:49:57.008Z,26.20
2019-02-07T21:52:43.350Z,26.73
2019-02-07T21:55:29.657Z,26.80
2019-02-07T21:58:16.050Z,26.63
2019-02-07T22:01:02.696Z,26.53
2019-02-07T22:03:50.464Z,26.93
2019-02-07T22:06:37.492Z,26.73
2019-02-07T22:09:24.781Z,26.60
2019-02-07T22:12:11.163Z,26.63
2019-02-07T22:14:58.213Z,26.40
2019-02-07T22:17:45.867Z,26.63
2019-02-07T22:20:33.011Z,26.80
2019-02-07T22:23:19.899Z,26.73
2019-02-07T22:26:07.339Z,27.13
2019-02-07T22:28:53.723Z,26.83
2019-02-07T22:31:40.888Z,27.47
2019-02-07T22:34:27.888Z,27.43
2019-02-07T22:37:14.779Z,26.70
2019-02-07T22:40:02.181Z,26.17
2019-02-07T22:42:48.519Z,26.67
2019-02-07T22:45:34.975Z,26.37
2019-02-07T22:48:22.080Z,26.77
2019-02-07T22:51:08.487Z,26.77
2019-02-07T22:53:55.612Z,26.10
2019-02-07T22:56:45.637Z,26.30
2019-02-07T22:59:30.395Z,27.03
2019-02-07T23:02:17.368Z,26.47
2019-02-07T23:05:04.245Z,27.10
2019-02-07T23:07:51.315Z,27.10
2019-02-07T23:10:38.435Z,26.47
2019-02-07T23:13:25.240Z,27.00
2019-02-07T23:16:13.685Z,27.50
2019-02-07T23:19:00.303Z,26.53
2019-02-07T23:21:47.083Z,26.93
2019-02-07T23:24:33.357Z,27.37
2019-02-07T23:27:19.941Z,26.97
2019-02-07T23:30:06.218Z,27.00
2019-02-07T23:32:53.656Z,27.43
2019-02-07T23:35:41.008Z,27.07
2019-02-07T23:38:27.825Z,26.93
2019-02-07T23:41:14.426Z,26.90
2019-02-07T23:44:00.803Z,26.40
2019-02-07T23:46:47.647Z,26.70
2019-02-07T23:49:33.929Z,26.67
2019-02-07T23:52:20.768Z,27.10
2019-02-07T23:55:07.351Z,27.57
2019-02-07T23:57:54.491Z,27.67
